KHSV/HSV METAR and TAF weather

Enter ICAO airport designator
Station Type Date Time Source
KHSV METAR 2021/03/06 03:53 UTC NOAA

KHSV 060353Z 02009KT 10SM -RA SCT060 BKN075 OVC090 08/M05 A3018 RMK AO2 RAB45 SLP220 P0000 T00781050


Station Type Date Time Source
KHSV Decoded METAR 2021/03/06 03:53 UTC NOAA

HUNTSVILLE INTERNATIONAL JONES FIELD, AL, United States (KHSV) 34-39N 086-47W 191M
Mar 05, 2021 - 10:53 PM EST / 2021.03.06 0353 UTC
Wind: from the NNE (020 degrees) at 10 MPH (9 KT):0
Visibility: 10 mile(s):0
Sky conditions: overcast
Weather: light rain
Precipitation last hour: A trace
Temperature: 46.0 F (7.8 C)
Dew Point: 23.0 F (-5.0 C)
Relative Humidity: 39%
Pressure (altimeter): 30.18 in. Hg (1022 hPa)
ob: KHSV 060353Z 02009KT 10SM -RA SCT060 BKN075 OVC090 08/M05 A3018 RMK AO2 RAB45 SLP220 P0000 T00781050
cycle: 4

Station Type Date Time Source
KHSV TAF 2021/03/05 18:22 UTC NOAA

TAF KHSV 051720Z 0518/0618 06011KT P6SM SCT150
FM052000 03010G18KT P6SM BKN060
FM060000 03009G14KT P6SM BKN070 OVC150
FM061500 05016G20KT P6SM SCT250

Example: see airport list